Time;durP1;ratioP1;P1;durP2;ratioP2;P2;SDS_P1;SDS_P2;PMS_P1;PMS_P2;Temp;Humidity;BMP_temperature;BMP_pressure;BME280_temperature;BME280_humidity;BME280_pressure;Samples;Min_cycle;Max_cycle;Signal;HPM_P1;HPM_P2
2022/12/26 00:01:34;;;;;;;5.17;2.73;;;;;;;13.51;100.00;101703.94;4901889;29;20499;-86
2022/12/26 00:04:04;;;;;;;5.70;2.43;;;;;;;13.53;100.00;101701.84;4897090;29;20442;-87
2022/12/26 00:06:53;;;;;;;9.73;3.27;;;;;;;13.54;100.00;101698.06;4910697;29;20442;-87
2022/12/26 00:09:20;;;;;;;6.20;2.07;;;;;;;13.53;100.00;101691.72;4900674;29;20497;-87
2022/12/26 00:11:48;;;;;;;3.30;1.37;;;;;;;13.52;100.00;101698.25;4863211;29;20456;-88
2022/12/26 00:14:16;;;;;;;4.60;1.40;;;;;;;13.47;100.00;101686.97;4882971;29;20450;-87
2022/12/26 00:16:44;;;;;;;4.93;1.70;;;;;;;13.47;100.00;101692.47;4882972;29;20833;-87
2022/12/26 00:19:14;;;;;;;8.37;2.20;;;;;;;13.45;100.00;101686.34;4882837;29;20513;-87
2022/12/26 00:21:42;;;;;;;4.00;1.67;;;;;;;13.39;100.00;101684.34;4867619;29;20496;-87
2022/12/26 00:24:10;;;;;;;3.63;1.30;;;;;;;13.36;100.00;101673.75;4888519;29;20454;-87
2022/12/26 00:26:38;;;;;;;12.63;3.60;;;;;;;13.40;100.00;101691.56;4868857;29;20453;-87
2022/12/26 00:29:06;;;;;;;6.93;1.70;;;;;;;13.41;100.00;101693.25;4898235;29;20455;-87
2022/12/26 00:31:34;;;;;;;12.87;1.93;;;;;;;13.38;100.00;101683.50;4909731;29;20445;-87
2022/12/26 00:34:06;;;;;;;4.27;1.90;;;;;;;13.46;100.00;101693.56;4902325;29;20457;-86
2022/12/26 00:36:35;;;;;;;11.80;2.10;;;;;;;13.44;100.00;101693.72;4883545;29;20532;-87
2022/12/26 00:39:06;;;;;;;8.97;2.80;;;;;;;13.45;100.00;101689.09;4896623;29;20474;-88
2022/12/26 00:41:33;;;;;;;10.13;1.33;;;;;;;13.41;100.00;101699.59;4901060;29;20498;-87
2022/12/26 00:44:10;;;;;;;6.73;1.87;;;;;;;13.33;100.00;101687.84;4900067;29;20437;-87
2022/12/26 00:46:41;;;;;;;8.33;2.40;;;;;;;13.32;100.00;101688.88;4866718;29;20446;-86
2022/12/26 00:49:09;;;;;;;9.17;2.90;;;;;;;13.27;100.00;101677.63;4880630;29;20446;-87
2022/12/26 00:51:37;;;;;;;19.17;4.90;;;;;;;13.30;100.00;101690.97;4881278;29;20442;-86
2022/12/26 00:54:06;;;;;;;13.33;5.40;;;;;;;13.27;100.00;101685.88;4881084;29;20953;-87
2022/12/26 00:56:34;;;;;;;20.10;6.70;;;;;;;13.27;100.00;101681.25;4866040;29;20442;-86
2022/12/26 00:59:02;;;;;;;16.57;7.57;;;;;;;13.29;100.00;101684.63;4881026;29;20453;-87
2022/12/26 01:01:32;;;;;;;10.03;2.43;;;;;;;13.29;100.00;101678.28;4850082;29;20505;-87
2022/12/26 01:04:03;;;;;;;9.00;2.33;;;;;;;13.29;100.00;101683.75;4865344;29;20449;-86
2022/12/26 01:06:31;;;;;;;8.33;2.10;;;;;;;13.29;100.00;101678.28;4881136;29;20567;-86
2022/12/26 01:08:59;;;;;;;7.10;2.10;;;;;;;13.26;100.00;101671.28;4880701;29;20478;-86
2022/12/26 01:11:41;;;;;;;6.57;2.27;;;;;;;13.28;100.00;101682.06;4862134;29;20458;-87
2022/12/26 01:14:15;;;;;;;11.77;4.00;;;;;;;13.30;100.00;101674.50;4867693;29;20461;-87
2022/12/26 01:16:43;;;;;;;12.60;2.80;;;;;;;13.28;100.00;101671.94;4865535;29;20481;-87
2022/12/26 01:19:12;;;;;;;11.43;3.20;;;;;;;13.37;100.00;101669.97;4896316;29;20457;-87
2022/12/26 01:21:41;;;;;;;16.93;3.67;;;;;;;13.41;100.00;101668.53;4881004;29;20581;-87
2022/12/26 01:24:11;;;;;;;18.60;2.30;;;;;;;13.41;100.00;101672.16;4895789;29;20438;-87
2022/12/26 01:26:41;;;;;;;7.47;2.23;;;;;;;13.34;100.00;101653.84;4865468;29;20446;-87
2022/12/26 01:29:09;;;;;;;11.30;3.90;;;;;;;13.48;100.00;101672.22;4865587;29;20510;-86
2022/12/26 01:31:37;;;;;;;14.67;4.53;;;;;;;13.53;100.00;101669.75;4865931;29;20498;-87
2022/12/26 01:34:05;;;;;;;16.83;2.90;;;;;;;13.57;100.00;101670.22;4866272;29;20458;-86
2022/12/26 01:36:33;;;;;;;14.47;2.93;;;;;;;13.60;100.00;101664.38;4880181;29;20462;-86
2022/12/26 01:39:02;;;;;;;25.37;6.80;;;;;;;13.71;100.00;101678.44;4862936;29;20451;-87
2022/12/26 01:41:32;;;;;;;14.87;5.20;;;;;;;13.77;100.00;101683.19;4878214;29;20493;-87
2022/12/26 01:44:26;;;;;;;14.27;5.67;;;;;;;13.81;100.00;101670.78;4880217;29;20442;-86
2022/12/26 01:46:54;;;;;;;15.83;5.40;;;;;;;13.80;100.00;101673.72;4908714;29;20513;-87
2022/12/26 01:49:36;;;;;;;14.97;4.80;;;;;;;13.89;100.00;101671.69;4915099;29;20443;-87
2022/12/26 01:52:10;;;;;;;19.37;3.80;;;;;;;13.94;100.00;101677.47;4900687;29;20813;-87
2022/12/26 01:54:38;;;;;;;16.87;5.00;;;;;;;14.02;100.00;101674.63;4900133;29;20449;-86
2022/12/26 01:57:15;;;;;;;11.17;3.90;;;;;;;14.04;100.00;101676.13;4900032;29;20445;-87
2022/12/26 01:59:45;;;;;;;23.00;4.30;;;;;;;14.10;100.00;101689.06;4900056;29;20527;-86
2022/12/26 02:02:14;;;;;;;15.63;4.57;;;;;;;14.14;100.00;101689.53;4897609;29;20495;-87
2022/12/26 02:07:32;;;;;;;19.03;5.17;;;;;;;14.23;100.00;101699.41;4887524;29;20857;-87
2022/12/26 02:10:02;;;;;;;14.37;5.57;;;;;;;14.27;100.00;101705.34;4877815;29;20481;-87
2022/12/26 02:12:33;;;;;;;23.10;5.70;;;;;;;14.25;100.00;101702.78;4888382;29;20460;-87
2022/12/26 02:15:10;;;;;;;15.37;5.90;;;;;;;14.27;100.00;101705.34;4904066;29;20455;-87
2022/12/26 02:17:38;;;;;;;20.40;6.80;;;;;;;14.27;100.00;101705.34;4889201;29;20514;-86
2022/12/26 02:20:37;;;;;;;21.37;5.90;;;;;;;14.31;100.00;101707.50;4861025;29;20818;-86
2022/12/26 02:23:20;;;;;;;10.33;5.00;;;;;;;14.36;100.00;101709.69;4846460;29;20491;-86
2022/12/26 02:25:56;;;;;;;32.27;5.23;;;;;;;14.40;100.00;101711.00;4829423;29;20452;-87
2022/12/26 02:28:48;;;;;;;16.53;4.40;;;;;;;14.43;100.00;101705.16;4854557;29;20455;-86
2022/12/26 02:31:35;;;;;;;15.90;5.10;;;;;;;14.50;100.00;101714.28;4861516;29;20830;-86
2022/12/26 02:34:19;;;;;;;16.83;4.37;;;;;;;14.54;100.00;101717.50;4831223;29;20538;-88
2022/12/26 02:37:07;;;;;;;13.70;4.47;;;;;;;14.60;100.00;101723.09;4845515;29;20455;-87
2022/12/26 02:39:49;;;;;;;22.57;5.07;;;;;;;14.67;100.00;101718.50;4858732;29;20448;-87
2022/12/26 02:43:00;;;;;;;29.20;4.20;;;;;;;14.77;100.00;101723.69;4843650;29;20533;-86
2022/12/26 02:48:51;;;;;;;25.97;4.70;;;;;;;14.87;100.00;101718.66;4771190;30;20470;-87
2022/12/26 03:13:10;;;;;;;31.40;4.73;;;;;;;15.26;100.00;101725.56;4755808;30;20465;-86
2022/12/26 03:18:50;;;;;;;39.23;6.17;;;;;;;15.40;100.00;101711.66;4806581;29;20517;-87
2022/12/26 03:21:28;;;;;;;31.63;4.87;;;;;;;15.47;100.00;101733.75;4806510;29;20845;-87
2022/12/26 03:23:56;;;;;;;32.57;5.37;;;;;;;15.41;100.00;101734.56;4791749;29;20977;-87
2022/12/26 03:26:39;;;;;;;38.43;6.00;;;;;;;15.40;100.00;101746.63;4805491;29;20553;-86
2022/12/26 03:31:58;;;;;;;21.37;4.03;;;;;;;15.34;100.00;101747.44;4806423;29;20508;-87
2022/12/26 03:34:28;;;;;;;17.13;4.20;;;;;;;15.30;100.00;101744.25;4846118;29;20544;-87
2022/12/26 03:37:08;;;;;;;28.10;4.50;;;;;;;15.28;100.00;101742.72;4877313;29;20999;-86
2022/12/26 04:19:54;;;;;;;18.97;3.67;;;;;;;15.19;100.00;101767.69;4886344;29;20964;-88
2022/12/26 04:45:17;;;;;;;17.30;3.17;;;;;;;14.92;100.00;101781.41;4898388;29;20444;-88
2022/12/26 04:50:34;;;;;;;14.17;2.50;;;;;;;14.84;100.00;101774.13;4887487;29;20445;-87
2022/12/26 04:53:02;;;;;;;24.27;3.43;;;;;;;14.85;100.00;101767.56;4868673;29;20445;-88
2022/12/26 04:55:31;;;;;;;14.27;3.60;;;;;;;14.86;100.00;101778.38;4897450;29;20464;-88
2022/12/26 04:57:59;;;;;;;10.03;3.40;;;;;;;14.77;100.00;101767.72;4867141;29;20453;-87
2022/12/26 05:00:27;;;;;;;19.67;4.00;;;;;;;14.83;100.00;101775.16;4857130;29;20452;-87
2022/12/26 05:11:24;;;;;;;20.77;6.83;;;;;;;14.80;100.00;101764.56;4881526;29;21017;-87
2022/12/26 05:13:54;;;;;;;32.17;8.20;;;;;;;14.85;100.00;101775.81;4866610;29;20438;-88
2022/12/26 05:30:29;;;;;;;22.77;4.97;;;;;;;14.58;100.00;101790.38;4894849;29;20512;-87
2022/12/26 05:35:43;;;;;;;20.77;5.97;;;;;;;14.48;100.00;101793.41;4902358;29;20500;-87
2022/12/26 05:38:11;;;;;;;20.33;5.03;;;;;;;14.46;100.00;101790.84;4872839;29;20454;-87
2022/12/26 05:40:39;;;;;;;17.47;4.23;;;;;;;14.36;100.00;101787.53;4878666;29;20443;-87
2022/12/26 05:43:07;;;;;;;16.73;3.93;;;;;;;14.34;100.00;101789.63;4895916;29;20473;-88
2022/12/26 05:45:35;;;;;;;18.40;5.30;;;;;;;14.36;100.00;101793.03;4900162;29;20823;-88
2022/12/26 05:48:03;;;;;;;24.47;5.97;;;;;;;14.31;100.00;101794.66;4899872;29;20437;-88
2022/12/26 05:50:32;;;;;;;21.83;7.47;;;;;;;14.36;100.00;101809.53;4914751;29;20460;-88
2022/12/26 05:53:00;;;;;;;18.40;7.30;;;;;;;14.34;100.00;101806.13;4883111;29;20454;-87
2022/12/26 05:55:28;;;;;;;21.70;5.10;;;;;;;14.36;100.00;101815.03;4894083;29;20449;-88
2022/12/26 05:57:56;;;;;;;24.30;7.20;;;;;;;14.32;100.00;101815.63;4887969;29;20441;-88
2022/12/26 06:00:25;;;;;;;20.10;6.53;;;;;;;14.26;100.00;101821.88;4884757;29;20472;-87
2022/12/26 06:02:53;;;;;;;14.57;3.37;;;;;;;14.22;100.00;101824.19;4883053;29;20492;-87
2022/12/26 06:05:21;;;;;;;15.60;4.80;;;;;;;14.12;100.00;101829.09;4881543;29;20488;-87
2022/12/26 06:07:50;;;;;;;15.33;4.20;;;;;;;14.15;100.00;101832.31;4860795;29;20445;-87
2022/12/26 06:10:17;;;;;;;15.53;4.70;;;;;;;14.15;100.00;101846.06;4884511;29;20587;-87
2022/12/26 06:12:46;;;;;;;19.40;6.40;;;;;;;14.18;100.00;101850.34;4868852;29;20440;-88
2022/12/26 06:15:17;;;;;;;18.23;6.03;;;;;;;14.19;100.00;101846.56;4900111;29;20448;-87
2022/12/26 06:17:45;;;;;;;27.90;10.77;;;;;;;14.15;100.00;101848.81;4899053;29;20955;-88
2022/12/26 06:20:13;;;;;;;48.27;17.93;;;;;;;14.10;100.00;101854.03;4884311;29;20508;-87
2022/12/26 06:22:41;;;;;;;51.57;24.13;;;;;;;14.12;100.00;101860.19;4872711;29;20477;-87
2022/12/26 06:25:09;;;;;;;59.03;26.27;;;;;;;14.09;100.00;101859.72;4870240;29;20450;-88
2022/12/26 06:27:36;;;;;;;53.50;26.27;;;;;;;14.12;100.00;101867.59;4883805;29;20452;-88
2022/12/26 06:30:04;;;;;;;49.57;21.87;;;;;;;14.10;100.00;101866.91;4868655;29;20467;-87
2022/12/26 06:32:32;;;;;;;46.80;24.03;;;;;;;14.12;100.00;101873.94;4868828;29;20535;-87
2022/12/26 06:35:01;;;;;;;48.13;23.73;;;;;;;14.11;100.00;101876.88;4884598;29;20456;-87
2022/12/26 06:37:30;;;;;;;43.50;19.20;;;;;;;14.12;100.00;101876.69;4915006;29;20445;-87
2022/12/26 06:39:58;;;;;;;33.93;15.90;;;;;;;14.14;100.00;101877.34;4899454;29;21007;-87
2022/12/26 06:42:26;;;;;;;22.43;10.00;;;;;;;14.14;100.00;101879.25;4883538;29;20512;-88
2022/12/26 06:44:54;;;;;;;13.87;6.67;;;;;;;14.07;100.00;101870.03;4883521;29;20459;-87
2022/12/26 06:47:23;;;;;;;20.90;6.73;;;;;;;14.09;100.00;101885.31;4915634;29;20460;-88
2022/12/26 06:49:52;;;;;;;16.93;7.17;;;;;;;14.07;100.00;101886.53;4900425;29;20445;-88
2022/12/26 06:52:21;;;;;;;20.93;8.27;;;;;;;14.05;100.00;101888.63;4903912;29;20453;-87
2022/12/26 06:54:51;;;;;;;20.87;8.60;;;;;;;14.05;100.00;101891.38;4886177;29;20456;-88
2022/12/26 06:57:21;;;;;;;29.27;11.13;;;;;;;14.04;100.00;101886.94;4888062;29;20441;-87
2022/12/26 06:59:50;;;;;;;29.10;10.47;;;;;;;14.09;100.00;101895.44;4872741;29;20448;-88
2022/12/26 07:02:18;;;;;;;30.50;11.83;;;;;;;14.09;100.00;101890.81;4917975;29;20507;-88
2022/12/26 07:04:46;;;;;;;40.37;16.57;;;;;;;14.12;100.00;101892.31;4882676;29;20447;-88
2022/12/26 07:07:14;;;;;;;38.73;13.63;;;;;;;14.08;100.00;101882.75;4872463;29;20455;-89
2022/12/26 07:09:42;;;;;;;32.93;11.40;;;;;;;14.16;100.00;101907.41;4887840;29;20989;-88
2022/12/26 07:12:10;;;;;;;66.83;32.20;;;;;;;14.17;100.00;101911.88;4890869;29;20458;-87
2022/12/26 07:14:40;;;;;;;108.87;57.53;;;;;;;14.22;100.00;101914.91;4853531;29;20489;-87
2022/12/26 07:17:09;;;;;;;82.30;37.37;;;;;;;14.25;100.00;101920.00;4882532;29;20449;-87
2022/12/26 07:19:37;;;;;;;43.37;22.57;;;;;;;14.27;100.00;101920.69;4871248;29;20448;-88
2022/12/26 07:22:05;;;;;;;20.27;6.10;;;;;;;14.47;100.00;101937.50;4870980;29;20448;-87
2022/12/26 07:24:33;;;;;;;34.03;6.03;;;;;;;14.67;100.00;101935.00;4879683;29;20553;-88
2022/12/26 07:27:00;;;;;;;21.57;6.10;;;;;;;14.85;100.00;101943.72;4876680;29;20446;-87
2022/12/26 07:29:29;;;;;;;24.73;5.70;;;;;;;14.93;100.00;101949.13;4883539;29;20449;-87
2022/12/26 07:31:57;;;;;;;53.67;7.00;;;;;;;14.98;100.00;101954.06;4868286;29;20445;-87
2022/12/26 07:34:27;;;;;;;29.17;7.20;;;;;;;15.03;100.00;101955.16;4864059;29;20827;-88
2022/12/26 07:36:58;;;;;;;28.27;6.43;;;;;;;15.09;100.00;101954.41;4865918;29;20497;-87
2022/12/26 07:39:27;;;;;;;25.23;6.27;;;;;;;15.16;100.00;101947.09;4882153;29;20469;-87
2022/12/26 07:41:58;;;;;;;47.13;7.73;;;;;;;15.21;100.00;101951.97;4883314;29;20442;-88
2022/12/26 07:44:28;;;;;;;38.70;7.40;;;;;;;15.31;100.00;101959.94;4900676;29;20490;-88
2022/12/26 07:46:57;;;;;;;24.23;5.40;;;;;;;15.35;100.00;101964.03;4869996;29;20450;-90
2022/12/26 07:49:25;;;;;;;35.07;5.40;;;;;;;15.36;100.00;101960.22;4885447;29;20602;-86
2022/12/26 07:51:53;;;;;;;40.43;5.87;;;;;;;15.44;100.00;101965.59;4902359;29;20445;-87
2022/12/26 07:54:23;;;;;;;41.83;7.00;;;;;;;15.45;100.00;101978.31;4894477;29;20456;-88
2022/12/26 07:56:51;;;;;;;25.50;6.10;;;;;;;15.45;100.00;101970.06;4889857;29;20804;-87
2022/12/26 07:59:19;;;;;;;27.60;6.60;;;;;;;15.45;100.00;101968.16;4877679;29;20915;-88
2022/12/26 08:01:48;;;;;;;30.53;4.70;;;;;;;15.46;100.00;101966.25;4863204;29;20449;-87
2022/12/26 08:04:17;;;;;;;33.90;5.60;;;;;;;15.44;100.00;101974.72;4900542;29;21007;-88
2022/12/26 08:06:45;;;;;;;24.93;5.27;;;;;;;15.40;100.00;101978.03;4868478;29;20438;-88
2022/12/26 08:09:16;;;;;;;27.73;5.33;;;;;;;15.41;100.00;101979.75;4868245;29;21016;-87
2022/12/26 08:11:45;;;;;;;28.80;6.50;;;;;;;15.33;100.00;101977.13;4868758;29;20446;-88
2022/12/26 08:14:15;;;;;;;38.93;7.20;;;;;;;15.30;100.00;101985.78;4884968;29;20438;-88
2022/12/26 08:16:43;;;;;;;25.27;7.70;;;;;;;15.30;100.00;102000.41;4860424;29;20445;-88
2022/12/26 08:19:18;;;;;;;27.03;8.03;;;;;;;15.21;100.00;101985.88;4854307;29;20449;-87
2022/12/26 08:21:46;;;;;;;26.80;8.10;;;;;;;15.20;100.00;101988.88;4851340;29;21649;-88
2022/12/26 08:24:15;;;;;;;25.90;8.80;;;;;;;15.26;100.00;101998.22;4882590;29;20477;-88
2022/12/26 08:26:43;;;;;;;26.87;7.77;;;;;;;15.29;100.00;102000.59;4882915;29;20456;-88
2022/12/26 08:29:10;;;;;;;31.17;9.00;;;;;;;15.26;100.00;102004.59;4866827;29;20443;-87
2022/12/26 08:31:39;;;;;;;25.07;10.70;;;;;;;15.34;100.00;102022.91;4897665;29;20449;-88
2022/12/26 08:34:08;;;;;;;70.10;29.40;;;;;;;15.37;100.00;102022.53;4897330;29;20454;-88
2022/12/26 08:36:37;;;;;;;53.27;22.50;;;;;;;15.45;100.00;102027.91;4868620;29;20589;-88
2022/12/26 08:39:17;;;;;;;63.80;25.83;;;;;;;15.50;100.00;102023.53;4878840;29;20456;-93
2022/12/26 08:41:45;;;;;;;52.90;18.80;;;;;;;15.56;100.00;102027.44;4900075;29;20455;-91
2022/12/26 08:44:13;;;;;;;29.13;12.47;;;;;;;15.69;100.00;102035.84;4900227;29;20496;-91
2022/12/26 08:46:58;;;;;;;37.13;12.93;;;;;;;15.77;100.00;102035.75;4891827;29;20870;-91
2022/12/26 08:49:25;;;;;;;32.40;8.30;;;;;;;15.91;100.00;102046.88;4871602;29;20459;-93
2022/12/26 08:51:53;;;;;;;33.27;7.30;;;;;;;15.99;100.00;102043.97;4871793;29;20461;-91
2022/12/26 08:54:23;;;;;;;35.03;9.33;;;;;;;16.10;100.00;102040.72;4870472;29;20948;-91
2022/12/26 08:56:51;;;;;;;42.13;11.67;;;;;;;16.22;100.00;102055.66;4868959;29;20449;-87
2022/12/26 08:59:18;;;;;;;35.70;9.93;;;;;;;16.28;100.00;102052.13;4888178;29;20954;-88
2022/12/26 09:01:47;;;;;;;46.93;12.80;;;;;;;16.45;100.00;102061.81;4864103;29;20504;-88
2022/12/26 09:04:16;;;;;;;35.07;13.43;;;;;;;16.59;100.00;102063.59;4866418;29;20832;-89
2022/12/26 09:06:44;;;;;;;35.03;12.80;;;;;;;16.73;100.00;102058.22;4868630;29;20446;-89
2022/12/26 09:09:12;;;;;;;59.53;14.10;;;;;;;16.85;100.00;102075.91;4873868;29;20505;-92
2022/12/26 09:11:44;;;;;;;29.93;8.73;;;;;;;16.96;100.00;102085.53;4864494;29;20446;-91
2022/12/26 09:14:23;;;;;;;32.90;7.90;;;;;;;17.04;100.00;102079.84;4869606;29;20441;-92
2022/12/26 09:16:57;;;;;;;25.57;7.30;;;;;;;17.09;100.00;102080.97;4867956;29;20454;-92
2022/12/26 09:19:32;;;;;;;35.00;6.13;;;;;;;17.17;100.00;102083.53;4867639;29;20450;-92
2022/12/26 09:24:46;;;;;;;26.30;6.57;;;;;;;17.31;100.00;102095.53;4876930;29;20485;-91
2022/12/26 09:27:20;;;;;;;23.37;5.63;;;;;;;17.42;100.00;102096.84;4862918;29;20529;-91
2022/12/26 09:29:48;;;;;;;29.00;6.93;;;;;;;17.58;100.00;102107.53;4882110;29;21040;-91
2022/12/26 09:32:19;;;;;;;25.67;6.33;;;;;;;17.67;100.00;102117.41;4882133;29;20453;-91
2022/12/26 09:34:49;;;;;;;26.87;8.10;;;;;;;17.72;100.00;102114.84;4867498;29;20454;-92
2022/12/26 09:37:18;;;;;;;35.80;10.33;;;;;;;17.81;100.00;102112.75;4867531;29;20929;-92
2022/12/26 09:39:45;;;;;;;36.87;13.63;;;;;;;17.93;100.00;102131.28;4846969;29;20463;-91
2022/12/26 09:42:43;;;;;;;32.00;12.00;;;;;;;18.05;100.00;102131.56;4894567;29;20461;-91
2022/12/26 09:45:18;;;;;;;45.27;8.50;;;;;;;18.12;100.00;102140.72;4879048;29;20494;-89
2022/12/26 09:48:05;;;;;;;32.43;9.33;;;;;;;18.24;100.00;102140.97;4863149;29;20446;-86
2022/12/26 09:50:37;;;;;;;45.80;8.60;;;;;;;18.28;100.00;102147.75;4879666;29;20468;-87
2022/12/26 09:53:19;;;;;;;31.13;7.77;;;;;;;18.34;100.00;102162.69;4887687;29;20455;-91
2022/12/26 09:55:51;;;;;;;25.47;8.63;;;;;;;18.39;100.00;102166.53;4849548;29;20484;-92
2022/12/26 10:02:22;;;;;;;24.40;7.47;;;;;;;18.35;100.00;102167.16;4880485;29;20501;-91
2022/12/26 10:05:28;;;;;;;27.40;7.93;;;;;;;18.41;100.00;102186.56;4896725;29;21071;-92
2022/12/26 10:12:05;;;;;;;24.20;6.60;;;;;;;18.37;100.00;102196.34;4915249;29;20562;-91
2022/12/26 10:14:52;;;;;;;28.57;7.50;;;;;;;18.38;100.00;102211.03;4901992;29;20461;-88
2022/12/26 10:17:56;;;;;;;29.03;8.20;;;;;;;18.34;100.00;102212.50;4897965;29;20478;-90
2022/12/26 10:20:42;;;;;;;20.77;7.23;;;;;;;18.36;100.00;102219.53;4898601;29;20456;-90
2022/12/26 10:23:18;;;;;;;25.23;7.53;;;;;;;18.30;100.00;102212.06;4913846;29;20441;-90
2022/12/26 10:25:59;;;;;;;28.47;8.33;;;;;;;18.32;100.00;102232.09;4884297;29;20460;-90
2022/12/26 10:28:45;;;;;;;38.47;9.47;;;;;;;18.37;100.00;102226.78;4902006;29;20797;-90
2022/12/26 10:31:51;;;;;;;29.53;8.53;;;;;;;18.47;100.00;102235.53;4901630;29;20976;-88
2022/12/26 10:34:52;;;;;;;29.23;8.20;;;;;;;18.61;100.00;102240.09;4856710;29;20542;-90
2022/12/26 10:37:40;;;;;;;40.10;7.90;;;;;;;18.58;100.00;102254.31;4859173;29;21001;-89
2022/12/26 10:40:32;;;;;;;24.83;7.40;;;;;;;18.63;100.00;102256.50;4833022;29;20452;-90
2022/12/26 10:43:27;;;;;;;24.53;8.53;;;;;;;18.73;100.00;102256.06;4847979;29;20448;-90
2022/12/26 10:46:16;;;;;;;47.70;8.43;;;;;;;18.77;100.00;102258.22;4819255;29;20455;-89
2022/12/26 10:48:47;;;;;;;34.97;8.33;;;;;;;18.75;100.00;102262.25;4847561;29;20452;-89
2022/12/26 10:51:23;;;;;;;25.60;8.60;;;;;;;18.72;100.00;102260.75;4832866;29;20483;-89
2022/12/26 10:53:51;;;;;;;29.27;7.93;;;;;;;18.65;100.00;102253.53;4832727;29;20439;-89
2022/12/26 10:56:19;;;;;;;15.10;6.57;;;;;;;18.70;100.00;102257.34;4817699;29;20981;-90
2022/12/26 10:58:57;;;;;;;27.73;7.10;;;;;;;18.73;100.00;102265.25;4817867;29;20455;-89
2022/12/26 11:01:28;;;;;;;19.83;7.40;;;;;;;18.85;100.00;102260.81;4818774;29;20466;-89
2022/12/26 11:03:58;;;;;;;33.47;8.10;;;;;;;18.83;100.00;102262.94;4847632;29;20554;-89
2022/12/26 11:06:41;;;;;;;19.27;6.40;;;;;;;18.88;100.00;102267.81;4817884;29;20462;-89
2022/12/26 11:09:37;;;;;;;27.70;7.70;;;;;;;18.96;100.00;102267.63;4849450;29;20442;-89
2022/12/26 11:12:06;;;;;;;25.50;6.67;;;;;;;18.93;100.00;102262.50;4885276;29;20474;-89
2022/12/26 11:14:43;;;;;;;16.20;7.03;;;;;;;19.01;100.00;102265.06;4886314;29;20445;-89
2022/12/26 11:17:35;;;;;;;20.70;6.70;;;;;;;19.15;100.00;102266.78;4885800;29;20449;-89
2022/12/26 11:20:14;;;;;;;15.37;6.70;;;;;;;19.22;100.00;102277.88;4903512;29;20545;-89
2022/12/26 11:22:45;;;;;;;23.80;7.03;;;;;;;19.22;100.00;102269.56;4904574;29;20496;-89
2022/12/26 11:25:22;;;;;;;18.23;6.10;;;;;;;19.28;100.00;102269.53;4901232;29;20493;-90
2022/12/26 11:27:57;;;;;;;27.57;7.47;;;;;;;19.38;100.00;102271.03;4887052;29;20453;-89
2022/12/26 11:30:32;;;;;;;24.70;6.60;;;;;;;19.31;100.00;102249.69;4885945;29;20457;-89
2022/12/26 11:33:32;;;;;;;29.80;6.80;;;;;;;19.41;100.00;102265.06;4886282;29;20437;-90
2022/12/26 11:36:17;;;;;;;20.63;5.70;;;;;;;19.51;100.00;102262.72;4874369;29;20785;-89
2022/12/26 11:39:03;;;;;;;25.00;5.87;;;;;;;19.58;100.00;102255.25;4871715;29;20450;-89
2022/12/26 11:41:39;;;;;;;17.33;4.87;;;;;;;19.66;100.00;102255.00;4884690;29;20466;-89
2022/12/26 11:44:18;;;;;;;20.60;6.07;;;;;;;19.77;100.00;102265.44;4848723;29;20559;-89
2022/12/26 11:47:21;;;;;;;23.50;4.83;;;;;;;19.86;100.00;102258.56;4870490;29;20532;-89
2022/12/26 11:50:06;;;;;;;16.83;4.60;;;;;;;19.99;100.00;102252.13;4870207;29;20445;-89
2022/12/26 11:52:38;;;;;;;20.10;6.20;;;;;;;20.12;100.00;102256.78;4855534;29;20513;-89
2022/12/26 11:55:29;;;;;;;16.93;4.97;;;;;;;20.16;100.00;102258.91;4857091;29;20440;-89
2022/12/26 11:58:08;;;;;;;17.23;4.47;;;;;;;20.23;100.00;102253.28;4884466;29;20517;-89
2022/12/26 12:00:41;;;;;;;18.43;5.33;;;;;;;20.30;100.00;102254.13;4900018;29;20481;-89
2022/12/26 12:03:14;;;;;;;17.53;4.93;;;;;;;20.39;100.00;102250.06;4854894;29;20445;-91
2022/12/26 12:06:21;;;;;;;17.40;4.43;;;;;;;20.42;100.00;102246.81;4869656;29;20537;-90
2022/12/26 12:09:13;;;;;;;18.13;4.50;;;;;;;20.51;100.00;102244.63;4899687;29;20452;-91
2022/12/26 12:12:07;;;;;;;21.97;5.37;;;;;;;20.60;100.00;102257.16;4861435;29;20455;-91
2022/12/26 12:15:00;;;;;;;24.57;4.70;;;;;;;20.65;100.00;102249.88;4860083;29;20459;-91
2022/12/26 12:17:37;;;;;;;26.20;4.80;;;;;;;20.75;100.00;102259.66;4831493;29;20477;-90
2022/12/26 12:20:30;;;;;;;11.90;4.53;;;;;;;20.78;100.00;102239.78;4861661;29;20547;-91
2022/12/26 12:23:18;;;;;;;9.73;3.27;;;;;;;20.85;100.00;102246.09;4861754;29;20452;-91
2022/12/26 12:25:49;;;;;;;12.53;4.30;;;;;;;20.95;100.00;102257.59;4859519;29;20510;-91
2022/12/26 12:28:39;;;;;;;12.90;3.97;;;;;;;20.98;100.00;102246.84;4861575;29;20439;-91
2022/12/26 12:31:16;;;;;;;13.30;3.80;;;;;;;21.02;100.00;102241.69;4884572;29;20457;-91
2022/12/26 12:33:53;;;;;;;17.30;5.03;;;;;;;20.97;100.00;102258.22;4869101;29;20452;-91
2022/12/26 12:36:48;;;;;;;22.00;5.70;;;;;;;21.00;100.00;102249.41;4868798;29;20476;-91
2022/12/26 12:39:24;;;;;;;18.30;5.57;;;;;;;21.03;100.00;102240.63;4889938;29;20542;-91
2022/12/26 12:41:59;;;;;;;12.50;4.50;;;;;;;21.09;100.00;102242.50;4854109;29;20944;-92
2022/12/26 12:44:47;;;;;;;22.27;5.80;;;;;;;21.07;100.00;102227.97;4868652;29;20532;-91
2022/12/26 12:47:36;;;;;;;24.23;5.80;;;;;;;21.12;100.00;102230.94;4863496;29;20457;-90
2022/12/26 12:50:20;;;;;;;13.00;5.13;;;;;;;21.10;100.00;102243.34;4914621;29;20430;-91
2022/12/26 12:53:27;;;;;;;18.17;4.70;;;;;;;21.16;100.00;102232.19;4884377;29;20934;-91
2022/12/26 12:56:10;;;;;;;16.87;4.57;;;;;;;21.25;100.00;102241.94;4847842;29;20453;-91
2022/12/26 12:58:44;;;;;;;21.23;3.80;;;;;;;21.30;100.00;102242.13;4853960;29;20446;-91
2022/12/26 13:01:29;;;;;;;17.73;3.57;;;;;;;21.37;100.00;102242.91;4868008;29;20445;-91
2022/12/26 13:04:19;;;;;;;24.53;4.30;;;;;;;21.38;100.00;102227.06;4883715;29;20441;-91
2022/12/26 13:06:58;;;;;;;12.93;3.70;;;;;;;21.43;100.00;102240.28;4853478;29;20454;-89
2022/12/26 13:09:57;;;;;;;10.57;3.53;;;;;;;21.44;100.00;102242.84;4854392;29;20456;-89
2022/12/26 13:12:29;;;;;;;16.27;4.00;;;;;;;21.47;100.00;102234.03;4866099;29;20468;-89
2022/12/26 13:15:20;;;;;;;19.73;4.50;;;;;;;21.56;100.00;102242.91;4853454;29;20438;-89
2022/12/26 13:18:07;;;;;;;16.43;4.40;;;;;;;21.59;100.00;102237.75;4898737;29;20465;-89
2022/12/26 13:20:45;;;;;;;18.00;4.47;;;;;;;21.57;100.00;102227.94;4899638;29;20993;-89
2022/12/26 13:26:26;;;;;;;18.00;3.80;;;;;;;21.67;100.00;102236.59;4880378;29;20449;-89
2022/12/26 13:29:01;;;;;;;14.67;4.27;;;;;;;21.69;100.00;102232.50;4853040;29;20453;-90
2022/12/26 13:31:38;;;;;;;16.17;4.37;;;;;;;21.75;100.00;102225.16;4852608;29;20454;-89
2022/12/26 13:34:17;;;;;;;14.03;3.93;;;;;;;21.68;100.00;102221.63;4845965;29;20438;-89
2022/12/26 13:36:49;;;;;;;11.80;3.73;;;;;;;21.72;100.00;102222.84;4853601;29;20460;-89
2022/12/26 13:39:20;;;;;;;13.30;4.80;;;;;;;21.80;100.00;102219.75;4852754;29;20456;-92
2022/12/26 13:44:40;;;;;;;15.43;5.47;;;;;;;21.93;100.00;102210.41;4884941;29;20489;-92
2022/12/26 13:47:38;;;;;;;16.67;4.60;;;;;;;21.98;100.00;102211.38;4852679;29;20521;-92
2022/12/26 13:50:45;;;;;;;18.93;4.40;;;;;;;21.96;100.00;102216.31;4868806;29;20531;-89
2022/12/26 13:53:39;;;;;;;24.10;4.83;;;;;;;21.96;100.00;102210.75;4879704;29;20964;-89
2022/12/26 13:56:14;;;;;;;17.30;5.60;;;;;;;21.94;100.00;102226.84;4852857;29;20485;-89
2022/12/26 13:59:01;;;;;;;16.10;4.60;;;;;;;21.85;100.00;102227.41;4870207;29;20441;-89
2022/12/26 14:01:45;;;;;;;13.77;4.90;;;;;;;21.81;100.00;102223.38;4899861;29;20458;-89
2022/12/26 14:04:36;;;;;;;13.53;4.20;;;;;;;21.85;100.00;102228.25;4897833;29;20929;-89
2022/12/26 14:07:27;;;;;;;25.83;4.50;;;;;;;21.82;100.00;102220.38;4867299;29;20922;-89